Time;durP1;ratioP1;P1;durP2;ratioP2;P2;SDS_P1;SDS_P2;PMS_P1;PMS_P2;Temp;Humidity;BMP_temperature;BMP_pressure;BME280_temperature;BME280_humidity;BME280_pressure;Samples;Min_cycle;Max_cycle;Signal;HPM_P1;HPM_P2
2023/11/06 00:01:19;;;;;;;0.17;0.13;;;;;;;9.31;59.69;98316.09;5308612;26;20385;-88
2023/11/06 00:03:44;;;;;;;0.00;0.00;;;;;;;9.21;59.69;98329.50;5307902;26;25097;-89
2023/11/06 00:06:11;;;;;;;0.80;0.80;;;;;;;9.15;59.68;98329.81;5308538;26;20072;-88
2023/11/06 00:08:37;;;;;;;0.00;0.00;;;;;;;9.28;59.69;98327.47;5308588;26;20082;-88
2023/11/06 00:11:02;;;;;;;0.00;0.00;;;;;;;9.56;59.70;98337.31;5308630;26;20064;-89
2023/11/06 00:13:28;;;;;;;8.45;2.20;;;;;;;9.55;59.70;98338.22;5309195;26;20065;-90
2023/11/06 00:15:53;;;;;;;0.20;0.20;;;;;;;9.52;59.70;98341.00;5315709;26;20049;-91
2023/11/06 00:18:19;;;;;;;4.00;0.68;;;;;;;9.71;59.71;98344.34;5318358;26;20120;-91
2023/11/06 00:20:44;;;;;;;0.40;0.40;;;;;;;9.59;59.70;98355.34;5308614;26;20410;-90
2023/11/06 00:23:10;;;;;;;1.55;1.10;;;;;;;9.59;59.71;98354.50;5307932;26;20106;-90
2023/11/06 00:25:36;;;;;;;0.08;0.08;;;;;;;9.75;59.71;98356.25;5308535;26;20048;-90
2023/11/06 00:28:02;;;;;;;0.95;0.95;;;;;;;9.42;59.70;98368.31;5308611;26;20117;-89
2023/11/06 00:30:27;;;;;;;0.37;0.37;;;;;;;9.75;59.71;98361.47;5308501;26;20065;-88
2023/11/06 00:32:54;;;;;;;0.80;0.80;;;;;;;9.74;59.72;98377.13;5308398;26;21813;-90
2023/11/06 00:35:19;;;;;;;5.00;1.45;;;;;;;9.84;59.72;98386.13;5308891;26;20428;-91
2023/11/06 00:37:45;;;;;;;0.28;0.28;;;;;;;9.68;59.71;98390.41;5326873;26;20076;-90
2023/11/06 00:40:10;;;;;;;2.50;1.77;;;;;;;9.67;59.71;98389.56;5308298;26;20106;-89
2023/11/06 00:42:36;;;;;;;0.20;0.20;;;;;;;9.63;59.70;98390.63;5308421;26;20090;-90
2023/11/06 00:45:02;;;;;;;1.70;1.37;;;;;;;9.66;59.71;98385.28;5308434;26;20060;-90
2023/11/06 00:47:27;;;;;;;2.62;0.90;;;;;;;9.73;59.71;98389.28;5308520;26;20386;-90
2023/11/06 00:49:52;;;;;;;1.75;1.08;;;;;;;9.81;59.72;98391.47;5308087;26;20060;-91
2023/11/06 00:52:19;;;;;;;0.32;0.32;;;;;;;9.86;59.71;98405.06;5308217;26;20108;-90
2023/11/06 00:54:45;;;;;;;7.00;1.90;;;;;;;10.22;59.74;98415.41;5308529;26;20057;-90
2023/11/06 00:57:10;;;;;;;0.00;0.00;;;;;;;10.36;59.75;98420.72;5308654;26;20163;-91
2023/11/06 00:59:36;;;;;;;0.10;0.10;;;;;;;10.57;59.76;98423.94;5308086;26;20416;-90
2023/11/06 01:02:03;;;;;;;8.07;1.37;;;;;;;10.20;59.74;98435.41;5308474;26;20096;-90
2023/11/06 01:04:28;;;;;;;0.80;0.80;;;;;;;10.23;59.73;98434.44;5308708;26;20071;-89
2023/11/06 01:06:54;;;;;;;0.20;0.20;;;;;;;10.60;59.76;98438.56;5307821;26;20064;-90
2023/11/06 01:09:19;;;;;;;0.75;0.75;;;;;;;10.77;59.76;98430.69;5307808;26;20105;-90
2023/11/06 01:11:48;;;;;;;0.20;0.17;;;;;;;10.72;59.76;98433.56;5308352;26;20108;-90
2023/11/06 01:14:14;;;;;;;0.00;0.00;;;;;;;10.64;59.77;98445.28;5308575;26;20464;-90
2023/11/06 01:16:40;;;;;;;0.20;0.20;;;;;;;10.70;59.77;98451.00;5308681;26;20067;-90
2023/11/06 01:19:05;;;;;;;0.00;0.00;;;;;;;10.86;59.78;98460.59;5308337;26;20108;-90
2023/11/06 01:21:31;;;;;;;0.43;0.43;;;;;;;11.08;59.80;98466.31;5308105;26;20086;-90
2023/11/06 01:23:57;;;;;;;0.30;0.28;;;;;;;11.08;59.79;98480.19;5308469;26;20048;-90
2023/11/06 01:26:22;;;;;;;0.00;0.00;;;;;;;10.99;59.77;98487.66;5308145;26;20080;-90
2023/11/06 01:28:48;;;;;;;0.00;0.00;;;;;;;11.05;59.78;98501.19;5308227;26;20072;-91
2023/11/06 01:31:13;;;;;;;0.10;0.10;;;;;;;11.26;59.80;98511.34;5326184;26;20091;-90
2023/11/06 01:33:38;;;;;;;0.00;0.00;;;;;;;11.41;59.81;98507.09;5307459;26;25103;-89
2023/11/06 01:36:04;;;;;;;0.10;0.10;;;;;;;11.30;59.79;98510.25;5326558;26;20120;-90
2023/11/06 01:38:30;;;;;;;1.55;1.08;;;;;;;11.35;59.80;98521.28;5308858;26;20774;-89
2023/11/06 01:40:56;;;;;;;0.00;0.00;;;;;;;11.50;59.81;98530.84;5308593;26;20066;-90
2023/11/06 01:43:25;;;;;;;0.10;0.10;;;;;;;11.60;59.81;98546.84;5308605;26;20305;-91
2023/11/06 01:45:51;;;;;;;0.00;0.00;;;;;;;11.70;59.82;98545.41;5311481;26;20029;-90
2023/11/06 01:48:17;;;;;;;0.10;0.10;;;;;;;11.74;59.82;98546.06;5332675;26;20104;-90
2023/11/06 01:50:42;;;;;;;0.65;0.65;;;;;;;11.76;59.83;98550.25;5308311;26;20108;-90
2023/11/06 01:53:09;;;;;;;0.35;0.35;;;;;;;11.80;59.82;98554.41;5307640;26;23249;-90
2023/11/06 01:55:34;;;;;;;0.00;0.00;;;;;;;11.60;59.81;98552.91;5309229;26;20123;-90
2023/11/06 01:58:00;;;;;;;0.00;0.00;;;;;;;11.61;59.82;98559.78;5326507;26;27717;-91
2023/11/06 02:00:28;;;;;;;0.08;0.08;;;;;;;11.72;59.82;98567.00;5326602;26;29560;-89
2023/11/06 02:02:55;;;;;;;1.35;0.70;;;;;;;11.81;59.82;98563.06;5309206;26;20043;-92
2023/11/06 02:05:20;;;;;;;0.15;0.15;;;;;;;11.58;59.81;98569.53;5327796;26;20078;-91
2023/11/06 02:07:45;;;;;;;1.85;1.75;;;;;;;11.60;59.81;98562.50;5309003;26;20064;-91
2023/11/06 02:10:11;;;;;;;0.30;0.30;;;;;;;11.52;59.80;98567.25;5308207;26;33532;-91
2023/11/06 02:12:37;;;;;;;0.10;0.10;;;;;;;11.42;59.80;98563.47;5291194;26;20056;-91
2023/11/06 02:15:03;;;;;;;1.87;1.45;;;;;;;11.38;59.79;98575.84;5308948;26;20102;-90
2023/11/06 02:17:28;;;;;;;0.28;0.28;;;;;;;11.28;59.80;98567.66;5308980;26;20072;-91
2023/11/06 02:19:53;;;;;;;0.00;0.00;;;;;;;11.11;59.78;98578.13;5308388;26;20649;-90
2023/11/06 02:22:19;;;;;;;1.80;1.70;;;;;;;11.03;59.78;98581.16;5308943;26;20071;-92
2023/11/06 02:24:46;;;;;;;0.30;0.30;;;;;;;11.02;59.79;98589.03;5309121;26;20064;-91
2023/11/06 02:27:11;;;;;;;0.20;0.20;;;;;;;11.02;59.79;98587.28;5290863;26;20109;-92
2023/11/06 02:29:37;;;;;;;0.00;0.00;;;;;;;11.21;59.79;98599.34;5308317;26;31634;-91
2023/11/06 02:32:03;;;;;;;0.05;0.05;;;;;;;11.19;59.79;98603.78;5308812;26;20104;-90
2023/11/06 02:34:28;;;;;;;0.00;0.00;;;;;;;11.14;59.79;98606.63;5308708;26;20094;-90
2023/11/06 02:36:54;;;;;;;0.37;0.37;;;;;;;11.30;59.79;98606.66;5308730;26;20064;-90
2023/11/06 02:39:19;;;;;;;0.00;0.00;;;;;;;11.43;59.80;98606.84;5308066;26;20064;-90
2023/11/06 02:41:45;;;;;;;0.03;0.03;;;;;;;11.46;59.81;98623.16;5308934;26;20349;-90
2023/11/06 02:44:11;;;;;;;0.00;0.00;;;;;;;11.80;59.83;98623.97;5308267;26;24593;-90
2023/11/06 02:46:37;;;;;;;0.10;0.10;;;;;;;11.81;59.82;98623.88;5309129;26;20078;-90
2023/11/06 02:49:02;;;;;;;0.00;0.00;;;;;;;11.88;59.83;98640.03;5308950;26;20064;-90
2023/11/06 02:51:28;;;;;;;1.50;1.40;;;;;;;11.96;59.83;98638.69;5308769;26;20064;-89
2023/11/06 02:53:54;;;;;;;0.00;0.00;;;;;;;12.04;59.83;98645.25;5309005;26;20056;-90
2023/11/06 02:56:19;;;;;;;0.00;0.00;;;;;;;12.28;59.85;98633.44;5309033;26;20068;-91
2023/11/06 02:58:44;;;;;;;0.00;0.00;;;;;;;12.42;59.86;98636.09;5308186;26;20075;-91
2023/11/06 03:01:10;;;;;;;0.20;0.20;;;;;;;12.47;59.86;98639.28;5308370;26;20106;-92
2023/11/06 03:03:35;;;;;;;0.77;0.28;;;;;;;12.57;59.86;98639.63;5309064;26;20370;-90
2023/11/06 03:06:01;;;;;;;4.40;0.77;;;;;;;12.59;59.87;98642.97;5309043;26;20123;-90
2023/11/06 03:08:26;;;;;;;0.00;0.00;;;;;;;12.78;59.87;98648.81;5309165;26;20093;-90
2023/11/06 03:10:52;;;;;;;0.00;0.00;;;;;;;12.75;59.88;98650.75;5309026;26;20048;-91
2023/11/06 03:13:20;;;;;;;0.45;0.40;;;;;;;12.70;59.87;98644.94;5308768;26;29807;-91
2023/11/06 03:15:46;;;;;;;0.10;0.10;;;;;;;12.76;59.88;98644.59;5310621;26;20072;-91
2023/11/06 03:18:12;;;;;;;0.20;0.20;;;;;;;12.60;59.87;98644.66;5317984;26;20068;-90
2023/11/06 03:20:38;;;;;;;0.00;0.00;;;;;;;12.59;59.87;98643.81;5308669;26;20430;-90
2023/11/06 03:23:04;;;;;;;0.30;0.30;;;;;;;12.53;59.86;98651.13;5308882;26;20086;-91
2023/11/06 03:25:29;;;;;;;0.28;0.28;;;;;;;12.31;59.86;98635.88;5308344;26;20372;-90
2023/11/06 03:27:54;;;;;;;0.00;0.00;;;;;;;12.33;59.85;98635.81;5308274;26;20071;-90
2023/11/06 03:30:20;;;;;;;0.00;0.00;;;;;;;12.23;59.85;98625.03;5307524;26;32622;-91
2023/11/06 03:32:47;;;;;;;0.10;0.08;;;;;;;12.21;59.85;98630.34;5307871;26;31170;-90
2023/11/06 03:35:12;;;;;;;0.03;0.03;;;;;;;12.36;59.86;98643.44;5290672;26;20425;-91
2023/11/06 03:37:38;;;;;;;2.90;0.82;;;;;;;12.21;59.84;98637.31;5326986;26;20052;-91
2023/11/06 03:40:03;;;;;;;0.00;0.00;;;;;;;12.15;59.84;98646.34;5308616;26;20063;-91
2023/11/06 03:42:29;;;;;;;0.00;0.00;;;;;;;12.25;59.84;98644.87;5308524;26;20432;-90
2023/11/06 03:44:54;;;;;;;0.22;0.22;;;;;;;12.22;59.85;98650.28;5308157;26;20076;-91
2023/11/06 03:47:20;;;;;;;0.22;0.22;;;;;;;12.19;59.84;98647.00;5308198;26;20057;-91
2023/11/06 03:49:45;;;;;;;0.00;0.00;;;;;;;12.28;59.85;98662.13;5327217;26;20087;-91
2023/11/06 03:52:11;;;;;;;0.00;0.00;;;;;;;12.23;59.85;98665.00;5308559;26;20084;-91
2023/11/06 03:54:40;;;;;;;0.00;0.00;;;;;;;12.31;59.85;98669.81;5308585;26;20071;-90
2023/11/06 03:57:06;;;;;;;0.00;0.00;;;;;;;12.20;59.84;98673.00;5290997;26;20055;-90
2023/11/06 03:59:31;;;;;;;0.00;0.00;;;;;;;12.12;59.83;98670.00;5308082;26;20144;-89
2023/11/06 04:01:57;;;;;;;1.20;1.10;;;;;;;12.23;59.85;98677.19;5308263;26;20156;-90
2023/11/06 04:04:22;;;;;;;0.00;0.00;;;;;;;12.37;59.86;98660.78;5307359;26;33267;-90
2023/11/06 04:06:48;;;;;;;0.00;0.00;;;;;;;12.40;59.85;98663.22;5308084;26;20398;-90
2023/11/06 04:09:13;;;;;;;0.00;0.00;;;;;;;12.49;59.86;98668.75;5308251;26;20061;-91
2023/11/06 04:11:40;;;;;;;0.00;0.00;;;;;;;12.42;59.86;98682.25;5308104;26;20115;-89
2023/11/06 04:14:05;;;;;;;0.00;0.00;;;;;;;12.33;59.85;98670.56;5308657;26;20079;-89
2023/11/06 04:16:31;;;;;;;0.00;0.00;;;;;;;12.33;59.85;98682.78;5307865;26;21912;-90
2023/11/06 04:18:56;;;;;;;0.00;0.00;;;;;;;12.34;59.85;98689.66;5308715;26;20103;-91
2023/11/06 04:21:22;;;;;;;0.00;0.00;;;;;;;12.51;59.86;98687.75;5308592;26;20122;-90
2023/11/06 04:23:47;;;;;;;0.00;0.00;;;;;;;12.52;59.86;98704.28;5308651;26;20112;-91
2023/11/06 04:26:13;;;;;;;0.00;0.00;;;;;;;12.55;59.86;98720.63;5308319;26;20112;-90
2023/11/06 04:28:38;;;;;;;0.00;0.00;;;;;;;12.59;59.87;98716.91;5307471;26;31443;-91
2023/11/06 04:31:04;;;;;;;0.10;0.10;;;;;;;12.60;59.87;98713.37;5307821;26;20452;-90
2023/11/06 04:33:29;;;;;;;0.00;0.00;;;;;;;12.71;59.87;98722.34;5308250;26;20116;-91
2023/11/06 04:35:55;;;;;;;0.00;0.00;;;;;;;12.64;59.87;98731.47;5308374;26;20080;-90
2023/11/06 04:38:20;;;;;;;0.00;0.00;;;;;;;12.57;59.86;98737.03;5308764;26;20111;-90
2023/11/06 04:40:46;;;;;;;0.00;0.00;;;;;;;12.76;59.88;98730.75;5308111;26;28901;-90
2023/11/06 04:43:12;;;;;;;0.00;0.00;;;;;;;12.65;59.86;98734.00;5309364;26;20080;-92
2023/11/06 04:45:38;;;;;;;0.00;0.00;;;;;;;12.62;59.87;98746.38;5310673;26;20056;-90
2023/11/06 04:48:05;;;;;;;0.00;0.00;;;;;;;12.78;59.88;98752.44;5322191;26;20035;-90
2023/11/06 04:50:30;;;;;;;0.00;0.00;;;;;;;12.93;59.89;98748.91;5291767;26;20458;-89
2023/11/06 04:52:56;;;;;;;0.00;0.00;;;;;;;12.80;59.88;98759.25;5326634;26;20076;-91
2023/11/06 04:55:22;;;;;;;0.10;0.10;;;;;;;12.87;59.88;98772.78;5308766;26;20127;-91
2023/11/06 04:57:47;;;;;;;0.00;0.00;;;;;;;12.91;59.89;98782.97;5308680;26;20057;-91
2023/11/06 05:00:13;;;;;;;0.00;0.00;;;;;;;12.94;59.89;98778.50;5308467;26;20070;-90
2023/11/06 05:02:39;;;;;;;0.10;0.10;;;;;;;12.99;59.89;98785.12;5290211;26;20074;-90
2023/11/06 05:05:06;;;;;;;0.00;0.00;;;;;;;13.05;59.90;98797.03;5308438;26;20056;-90
2023/11/06 05:07:31;;;;;;;0.00;0.00;;;;;;;13.02;59.89;98805.88;5290444;26;20486;-91
2023/11/06 05:09:57;;;;;;;0.00;0.00;;;;;;;12.95;59.89;98799.31;5308188;26;20123;-90
2023/11/06 05:12:22;;;;;;;0.00;0.00;;;;;;;13.06;59.90;98804.78;5307691;26;20448;-92
2023/11/06 05:14:48;;;;;;;0.00;0.00;;;;;;;13.05;59.89;98818.75;5307571;26;29769;-92
2023/11/06 05:17:13;;;;;;;0.00;0.00;;;;;;;13.08;59.90;98812.53;5308105;26;20436;-92
2023/11/06 05:19:41;;;;;;;0.00;0.00;;;;;;;13.09;59.89;98812.44;5326087;26;20120;-91
2023/11/06 05:22:10;;;;;;;0.00;0.00;;;;;;;13.11;59.89;98805.34;5308731;26;20069;-91
2023/11/06 05:24:41;;;;;;;0.00;0.00;;;;;;;12.97;59.89;98802.66;5290416;26;20024;-90
2023/11/06 05:27:06;;;;;;;0.00;0.00;;;;;;;13.17;59.90;98818.09;5309050;26;20113;-90
2023/11/06 05:29:33;;;;;;;0.20;0.20;;;;;;;13.12;59.90;98825.31;5307449;26;20072;-91
2023/11/06 05:31:58;;;;;;;0.00;0.00;;;;;;;13.02;59.88;98842.44;5308323;26;20128;-92
2023/11/06 05:34:24;;;;;;;0.00;0.00;;;;;;;13.00;59.89;98844.28;5308524;26;20052;-92
2023/11/06 05:36:49;;;;;;;0.00;0.00;;;;;;;12.86;59.88;98852.06;5308323;26;20079;-91
2023/11/06 05:39:15;;;;;;;0.00;0.00;;;;;;;12.84;59.88;98854.75;5308270;26;20084;-93
2023/11/06 05:41:44;;;;;;;0.00;0.00;;;;;;;13.00;59.89;98846.91;5307508;26;20413;-87
2023/11/06 05:44:10;;;;;;;0.40;0.30;;;;;;;13.03;59.89;98851.97;5308768;26;20064;-91
2023/11/06 05:46:35;;;;;;;0.00;0.00;;;;;;;13.10;59.89;98852.47;5307376;26;20397;-89
2023/11/06 05:49:01;;;;;;;0.00;0.00;;;;;;;13.12;59.90;98866.28;5308029;26;20084;-91
2023/11/06 05:51:27;;;;;;;0.00;0.00;;;;;;;13.09;59.89;98864.69;5308125;26;20113;-91
2023/11/06 05:53:52;;;;;;;0.00;0.00;;;;;;;13.18;59.90;98874.63;5307062;26;33215;-92
2023/11/06 05:56:17;;;;;;;0.00;0.00;;;;;;;13.11;59.89;98878.50;5307569;26;20084;-91
2023/11/06 05:58:43;;;;;;;0.00;0.00;;;;;;;13.10;59.89;98882.03;5307442;26;23071;-91
2023/11/06 06:01:09;;;;;;;0.00;0.00;;;;;;;13.08;59.90;98875.22;5306992;26;20080;-92
2023/11/06 06:03:34;;;;;;;0.00;0.00;;;;;;;13.09;59.89;98880.37;5307880;26;20053;-92
2023/11/06 06:06:00;;;;;;;0.00;0.00;;;;;;;13.09;59.90;98872.53;5307752;26;20064;-91
2023/11/06 06:08:25;;;;;;;0.00;0.00;;;;;;;13.09;59.89;98885.59;5307885;26;20071;-91
2023/11/06 06:10:51;;;;;;;0.00;0.00;;;;;;;13.17;59.90;98886.03;5306913;26;20075;-92
2023/11/06 06:13:18;;;;;;;0.15;0.15;;;;;;;13.13;59.90;98894.09;5307680;26;20095;-92
2023/11/06 06:15:43;;;;;;;0.15;0.08;;;;;;;13.25;59.90;98897.81;5313377;26;20107;-91
2023/11/06 06:18:09;;;;;;;0.00;0.00;;;;;;;13.30;59.91;98898.41;5312366;26;20084;-91
2023/11/06 06:20:34;;;;;;;0.10;0.10;;;;;;;13.25;59.90;98906.50;5308051;26;20127;-92
2023/11/06 06:23:00;;;;;;;0.00;0.00;;;;;;;13.15;59.90;98915.75;5307995;26;20076;-92
2023/11/06 06:25:25;;;;;;;0.00;0.00;;;;;;;13.19;59.90;98914.69;5307298;26;29961;-92
2023/11/06 06:27:51;;;;;;;0.00;0.00;;;;;;;13.30;59.91;98912.31;5307520;26;20088;-91
2023/11/06 06:30:16;;;;;;;0.00;0.00;;;;;;;13.33;59.91;98921.75;5307819;26;20103;-91
2023/11/06 06:32:42;;;;;;;0.00;0.00;;;;;;;13.40;59.92;98923.09;5307712;26;20080;-91
2023/11/06 06:35:08;;;;;;;0.00;0.00;;;;;;;13.47;59.91;98925.25;5308033;26;20080;-90
2023/11/06 06:37:33;;;;;;;0.00;0.00;;;;;;;13.30;59.91;98917.56;5289869;26;20087;-92
2023/11/06 06:39:58;;;;;;;0.00;0.00;;;;;;;13.39;59.92;98921.41;5307398;26;29160;-92
2023/11/06 06:42:24;;;;;;;0.00;0.00;;;;;;;13.41;59.91;98919.53;5307721;26;35440;-93
2023/11/06 06:44:49;;;;;;;0.00;0.00;;;;;;;13.56;59.92;98923.91;5308741;26;20087;-91
2023/11/06 06:47:15;;;;;;;0.10;0.10;;;;;;;13.67;59.93;98925.87;5327770;26;20112;-92
2023/11/06 06:49:40;;;;;;;0.00;0.00;;;;;;;13.56;59.92;98931.75;5308728;26;20079;-91
2023/11/06 06:52:09;;;;;;;0.00;0.00;;;;;;;13.68;59.93;98943.28;5308745;26;20423;-92
2023/11/06 06:54:35;;;;;;;0.00;0.00;;;;;;;13.59;59.93;98949.87;5308654;26;20064;-91
2023/11/06 06:57:02;;;;;;;1.55;1.45;;;;;;;13.56;59.92;98952.66;5290583;26;20061;-92
2023/11/06 06:59:27;;;;;;;0.00;0.00;;;;;;;13.74;59.93;98954.25;5290874;26;20082;-91
2023/11/06 07:01:53;;;;;;;0.00;0.00;;;;;;;13.82;59.94;98957.25;5308624;26;20460;-91
2023/11/06 07:04:18;;;;;;;0.00;0.00;;;;;;;13.89;59.94;98967.34;5308654;26;20386;-92
2023/11/06 07:06:43;;;;;;;0.00;0.00;;;;;;;14.00;59.94;98970.19;5308602;26;20057;-92
2023/11/06 07:09:09;;;;;;;0.00;0.00;;;;;;;13.97;59.95;98973.00;5307917;26;20131;-92
2023/11/06 07:11:34;;;;;;;0.10;0.10;;;;;;;13.99;59.94;98979.81;5308329;26;20056;-92
2023/11/06 07:14:00;;;;;;;0.00;0.00;;;;;;;14.24;59.96;98988.84;5308239;26;20079;-92
2023/11/06 07:16:25;;;;;;;0.00;0.00;;;;;;;14.37;59.96;98988.03;5308225;26;20454;-92
2023/11/06 07:18:51;;;;;;;0.08;0.08;;;;;;;14.47;59.97;98996.22;5307392;26;32209;-92
2023/11/06 07:21:17;;;;;;;0.00;0.00;;;;;;;14.44;59.97;99004.25;5307852;26;20108;-92
2023/11/06 07:23:44;;;;;;;1.95;0.80;;;;;;;14.49;59.98;99014.47;5308444;26;20127;-92
2023/11/06 07:26:09;;;;;;;0.00;0.00;;;;;;;14.70;59.98;99018.41;5290047;26;20060;-92
2023/11/06 07:28:35;;;;;;;0.08;0.08;;;;;;;14.81;59.99;99026.44;5308187;26;20362;-91
2023/11/06 07:31:00;;;;;;;0.00;0.00;;;;;;;14.76;59.99;99027.66;5307968;26;20056;-91
2023/11/06 07:33:26;;;;;;;0.00;0.00;;;;;;;14.95;60.01;99033.47;5308020;26;20108;-92
2023/11/06 07:35:52;;;;;;;0.00;0.00;;;;;;;14.95;60.00;99036.09;5307924;26;20429;-92
2023/11/06 07:38:17;;;;;;;0.00;0.00;;;;;;;15.07;60.01;99032.72;5308381;26;20107;-92
2023/11/06 07:40:43;;;;;;;0.00;0.00;;;;;;;15.09;60.00;99043.09;5308081;26;20056;-92
2023/11/06 07:43:08;;;;;;;0.10;0.10;;;;;;;15.40;60.03;99047.31;5308775;26;20459;-92
2023/11/06 07:45:34;;;;;;;0.52;0.52;;;;;;;15.28;60.02;99043.66;5316746;26;20133;-92
2023/11/06 07:48:02;;;;;;;0.00;0.00;;;;;;;15.29;60.02;99054.03;5326694;26;20400;-91
2023/11/06 07:50:32;;;;;;;0.00;0.00;;;;;;;15.34;60.02;99048.50;5326151;26;20453;-91
2023/11/06 07:52:57;;;;;;;0.00;0.00;;;;;;;15.37;60.02;99050.94;5307819;26;20095;-90
2023/11/06 07:55:23;;;;;;;0.00;0.00;;;;;;;15.28;60.01;99054.97;5307829;26;20102;-91
2023/11/06 07:57:49;;;;;;;0.00;0.00;;;;;;;15.37;60.02;99056.16;5307464;26;21493;-91
2023/11/06 08:00:15;;;;;;;0.00;0.00;;;;;;;15.49;60.03;99058.03;5308087;26;20051;-90
2023/11/06 08:02:41;;;;;;;0.10;0.10;;;;;;;15.45;60.03;99068.81;5289777;26;20039;-90
2023/11/06 08:05:08;;;;;;;0.00;0.00;;;;;;;15.55;60.04;99072.53;5307821;26;20112;-91
2023/11/06 08:07:34;;;;;;;0.00;0.00;;;;;;;15.62;60.03;99087.84;5290374;26;20065;-90
2023/11/06 08:10:00;;;;;;;0.00;0.00;;;;;;;15.73;60.04;99091.56;5308029;26;20056;-91
2023/11/06 08:12:25;;;;;;;0.00;0.00;;;;;;;15.87;60.05;99089.75;5308022;26;20072;-91
2023/11/06 08:14:51;;;;;;;0.00;0.00;;;;;;;16.04;60.06;99093.06;5307212;26;28722;-90
2023/11/06 08:17:16;;;;;;;0.00;0.00;;;;;;;16.02;60.06;99094.94;5308035;26;20112;-93
2023/11/06 08:19:42;;;;;;;0.00;0.00;;;;;;;16.11;60.07;99100.47;5307766;26;20430;-90
2023/11/06 08:22:09;;;;;;;0.03;0.03;;;;;;;16.11;60.06;99104.88;5308077;26;20193;-90
2023/11/06 08:24:34;;;;;;;0.00;0.00;;;;;;;16.24;60.07;99106.56;5289871;26;20064;-91
2023/11/06 08:27:00;;;;;;;1.75;1.00;;;;;;;16.19;60.07;99108.66;5307855;26;20103;-90
2023/11/06 08:29:25;;;;;;;0.05;0.05;;;;;;;16.28;60.07;99107.22;5307337;26;25105;-90
2023/11/06 08:31:50;;;;;;;0.00;0.00;;;;;;;16.40;60.08;99103.78;5307189;26;26717;-90
2023/11/06 08:34:16;;;;;;;0.05;0.05;;;;;;;16.40;60.08;99114.31;5307670;26;20155;-90
2023/11/06 08:36:45;;;;;;;0.00;0.00;;;;;;;16.47;60.08;99118.19;5308132;26;20129;-91
2023/11/06 08:39:10;;;;;;;0.00;0.00;;;;;;;16.55;60.09;99112.41;5289772;26;20052;-90
2023/11/06 08:41:36;;;;;;;0.28;0.28;;;;;;;16.48;60.08;99116.41;5307716;26;20108;-90
2023/11/06 08:44:01;;;;;;;0.00;0.00;;;;;;;16.51;60.08;99117.03;5307316;26;20064;-90
2023/11/06 08:46:26;;;;;;;0.00;0.00;;;;;;;16.52;60.09;99123.13;5326316;26;20333;-91
2023/11/06 08:48:52;;;;;;;0.00;0.00;;;;;;;16.62;60.08;99132.13;5307930;26;20143;-90
2023/11/06 08:51:17;;;;;;;0.10;0.10;;;;;;;16.60;60.09;99125.28;5325935;26;20083;-91
2023/11/06 08:53:44;;;;;;;0.00;0.00;;;;;;;16.56;60.09;99127.25;5307569;26;20072;-90
2023/11/06 08:56:10;;;;;;;1.45;0.35;;;;;;;16.51;60.09;99139.84;5307688;26;20071;-90
2023/11/06 08:58:38;;;;;;;0.00;0.00;;;;;;;16.69;60.09;99135.19;5307955;26;20119;-90
2023/11/06 09:01:06;;;;;;;0.00;0.00;;;;;;;16.69;60.09;99136.03;5308007;26;20060;-91
2023/11/06 09:03:31;;;;;;;12.45;1.55;;;;;;;16.55;60.09;99142.16;5289878;26;20060;-91
2023/11/06 09:05:57;;;;;;;0.00;0.00;;;;;;;16.69;60.09;99141.28;5307648;26;20109;-90
2023/11/06 09:08:22;;;;;;;0.00;0.00;;;;;;;16.61;60.09;99151.44;5307803;26;20112;-90
2023/11/06 09:10:48;;;;;;;0.00;0.00;;;;;;;16.47;60.09;99154.13;5307595;26;20448;-90
2023/11/06 09:13:13;;;;;;;0.00;0.00;;;;;;;16.55;60.09;99157.94;5313056;26;20182;-90
2023/11/06 09:15:40;;;;;;;0.00;0.00;;;;;;;16.55;60.09;99170.22;5318356;26;20068;-90
2023/11/06 09:18:06;;;;;;;0.00;0.00;;;;;;;16.63;60.08;99185.50;5310422;26;20233;-89
2023/11/06 09:20:32;;;;;;;0.62;0.37;;;;;;;16.73;60.09;99187.44;5307536;26;20064;-90
2023/11/06 09:23:00;;;;;;;0.00;0.00;;;;;;;16.61;60.08;99193.50;5307827;26;20772;-90
2023/11/06 09:25:26;;;;;;;0.40;0.35;;;;;;;16.79;60.10;99197.53;5307866;26;20072;-91
2023/11/06 09:27:51;;;;;;;0.00;0.00;;;;;;;17.06;60.11;99199.31;5307427;26;20055;-90
2023/11/06 09:30:17;;;;;;;0.20;0.20;;;;;;;17.13;60.12;99205.81;5307060;26;20125;-90
2023/11/06 09:32:43;;;;;;;1.45;0.45;;;;;;;17.21;60.12;99206.13;5306901;26;20468;-90
2023/11/06 09:35:08;;;;;;;0.00;0.00;;;;;;;17.36;60.13;99197.22;5307760;26;20345;-89
2023/11/06 09:37:34;;;;;;;0.00;0.00;;;;;;;17.48;60.15;99195.50;5307543;26;20087;-89
2023/11/06 09:40:01;;;;;;;0.00;0.00;;;;;;;17.62;60.15;99197.19;5306696;26;25937;-90
2023/11/06 09:42:26;;;;;;;0.00;0.00;;;;;;;17.62;60.15;99208.56;5307785;26;20071;-90
2023/11/06 09:44:52;;;;;;;0.00;0.00;;;;;;;17.77;60.16;99209.34;5307202;26;20456;-90
2023/11/06 09:47:17;;;;;;;0.00;0.00;;;;;;;17.74;60.15;99204.25;5326067;26;20463;-90
2023/11/06 09:49:59;;;;;;;0.00;0.00;;;;;;;17.60;60.14;99214.88;5307426;26;20099;-90
2023/11/06 09:52:26;;;;;;;0.00;0.00;;;;;;;17.63;60.15;99214.69;5289749;26;20064;-90
2023/11/06 09:54:51;;;;;;;0.10;0.10;;;;;;;17.79;60.16;99210.06;5307251;26;20392;-89
2023/11/06 09:57:17;;;;;;;0.00;0.00;;;;;;;17.95;60.16;99223.81;5306496;26;20546;-91
2023/11/06 09:59:42;;;;;;;0.00;0.00;;;;;;;18.19;60.18;99220.38;5307283;26;20052;-90
2023/11/06 10:02:08;;;;;;;0.00;0.00;;;;;;;18.28;60.18;99219.75;5307337;26;20120;-90
2023/11/06 10:04:36;;;;;;;0.00;0.00;;;;;;;18.44;60.19;99215.03;5307215;26;20060;-90
2023/11/06 10:07:03;;;;;;;0.08;0.08;;;;;;;18.73;60.20;99202.41;5288972;26;20060;-90
2023/11/06 10:09:29;;;;;;;0.00;0.00;;;;;;;18.87;60.21;99212.75;5289586;26;20460;-91
2023/11/06 10:11:58;;;;;;;0.00;0.00;;;;;;;18.94;60.22;99214.00;5307133;26;20063;-90
2023/11/06 10:14:39;;;;;;;0.00;0.00;;;;;;;18.97;60.22;99211.13;5307656;26;20064;-91
2023/11/06 10:17:05;;;;;;;0.00;0.00;;;;;;;18.90;60.21;99214.31;5290684;26;20436;-90
2023/11/06 10:19:31;;;;;;;0.00;0.00;;;;;;;18.95;60.22;99217.47;5307958;26;20064;-90
2023/11/06 10:21:56;;;;;;;0.00;0.00;;;;;;;19.23;60.24;99214.44;5308317;26;20333;-90
2023/11/06 10:24:22;;;;;;;0.00;0.00;;;;;;;19.20;60.23;99209.37;5308140;26;20080;-90
2023/11/06 10:26:47;;;;;;;0.00;0.00;;;;;;;19.29;60.23;99221.03;5308132;26;20431;-90
2023/11/06 10:29:13;;;;;;;0.00;0.00;;;;;;;19.21;60.23;99212.84;5307835;26;20095;-90
2023/11/06 10:31:40;;;;;;;0.00;0.00;;;;;;;19.25;60.24;99209.88;5289778;26;20037;-90
2023/11/06 10:34:25;;;;;;;0.00;0.00;;;;;;;19.39;60.24;99218.50;5308566;26;20096;-90
2023/11/06 10:37:04;;;;;;;0.00;0.00;;;;;;;19.35;60.24;99220.53;5326479;26;20095;-90
2023/11/06 10:39:31;;;;;;;0.00;0.00;;;;;;;19.55;60.25;99217.25;5308070;26;20051;-90
2023/11/06 10:42:00;;;;;;;0.00;0.00;;;;;;;19.56;60.25;99215.44;5290178;26;20686;-89
2023/11/06 10:44:26;;;;;;;0.10;0.10;;;;;;;19.49;60.25;99222.13;5302595;26;20126;-90
2023/11/06 10:46:51;;;;;;;0.00;0.00;;;;;;;19.30;60.23;99227.97;5308185;26;20082;-89
2023/11/06 10:49:29;;;;;;;0.00;0.00;;;;;;;19.25;60.24;99232.78;5307549;26;20087;-89
2023/11/06 10:51:55;;;;;;;1.87;0.90;;;;;;;19.14;60.22;99233.56;5289981;26;20037;-89
2023/11/06 10:54:20;;;;;;;0.00;0.00;;;;;;;19.26;60.24;99232.66;5325435;26;26293;-90
2023/11/06 10:56:46;;;;;;;0.00;0.00;;;;;;;19.44;60.24;99234.84;5307634;26;20100;-90
2023/11/06 10:59:11;;;;;;;0.00;0.00;;;;;;;19.51;60.26;99228.97;5307725;26;20065;-90
2023/11/06 11:01:37;;;;;;;0.00;0.00;;;;;;;19.68;60.26;99235.62;5307188;26;20083;-89
2023/11/06 11:04:03;;;;;;;0.00;0.00;;;;;;;19.72;60.27;99234.44;5307444;26;20082;-89
2023/11/06 11:06:28;;;;;;;0.20;0.20;;;;;;;19.85;60.28;99229.84;5307863;26;20032;-89
2023/11/06 11:08:54;;;;;;;0.00;0.00;;;;;;;20.00;60.27;99232.28;5307088;26;25298;-90
2023/11/06 11:11:19;;;;;;;0.00;0.00;;;;;;;20.19;60.29;99229.84;5307558;26;20083;-90
2023/11/06 11:13:44;;;;;;;0.00;0.00;;;;;;;20.19;60.29;99232.50;5307852;26;20105;-90
2023/11/06 11:16:45;;;;;;;0.00;0.00;;;;;;;20.33;60.29;99232.22;5307472;26;20092;-89
2023/11/06 11:19:22;;;;;;;;;;;;;;;20.11;60.29;99233.13;5322647;26;20365;-90
2023/11/06 11:22:08;;;;;;;0.00;0.00;;;;;;;20.12;60.28;99229.50;5326027;26;20313;-89
2023/11/06 11:24:45;;;;;;;0.00;0.00;;;;;;;20.07;60.28;99238.75;5308163;26;20062;-89
2023/11/06 11:27:15;;;;;;;0.00;0.00;;;;;;;19.93;60.28;99235.41;5325219;26;20810;-90
2023/11/06 11:29:53;;;;;;;0.00;0.00;;;;;;;19.64;60.26;99236.84;5290447;26;20096;-90